Portada
METAR-TAF:

METAR-TAF

Aeropuertos :

Chattanooga, Tennessee, Estados Unidos

latitud: 35-02-00N, longitud: 085-12-00W, altitud: 207 m

Observación

El informe se hizo hace 17 minutos, a las 12:53 UTC
Viento calma
Temperatura -3°C
Humedad 80%
Presión 1029 hPa
Visibilidad: 16.1 km
Escasas nubes a una altura de 20000 ft

METAR: KCHA 021253Z 00000KT 10SM FEW200 M03/M06 A3040 RMK AO2 SLP301 I1000 T10331056 $

Hora: 08:10 (13:10 UTC)

Pronóstico

El informe se hizo hace 1 hora y 30 minutos, a las 11:40 UTC
Pronóstico válido del 02 a las 12 UTC al 03 a las 12 UTC
Viento 5 kt del norte-noreste
Visibilidad: 10 km
Nubes dispersas a una altura de 25000 ft
A partir de las 03 a las 0000 UTC
Viento kt del norte
Visibilidad: 10 km
Cielo nuboso a una altura de 20000 ft

TAF: KCHA 021140Z 0212/0312 02005KT P6SM SCT250 FM030000 00000KT P6SM BKN200

Observaciones y pronósticos meteorológicos de más de 4000 aeropuertos (mensajes METAR y TAF).

Los puntos amarillos y rojos representan las estaciones disponibles.

Ponga el ratón en el punto deseado para ver el nombre de la estación.

Haga clic para ver las observaciones y los pronósticos meteorológicos.

Para cambiar el mapa : haga clic en los botones verdes con una cruz de color negro para hacer un zoom, en el botón verde con un guión para alejar o en las flechas verdes para mapas adyacentes.


METAR-TAF: